Omagh, United Kingdom
Current Conditions -  °F | °C
As of 2:20 PM on Friday 24 Oct 2014 (Local Time) from EGAE Reporting Station
Broken Clouds Broken Clouds  
Wind Chill: 54°   Ceiling: 2900
Heat Index: 54°   Visibility: 6mi
Dew Point: 46°   Wind: 21mph
Humidity: 77%   Direction: 230°SW
Pressure: 29.71"   Gusts: NA
Location:  54.6°N, 7.3°W
Report Text: EGAE 241320Z 23018KT 9999 FEW022 BKN029 12/08 Q1006
Loading
Personal Weather Stations






























Interactive Weather Map
Tropical Storm Tracking
New forecast layout! Learn more

10-Day Weather Forecast

Advertisements
Track Severe Weather on mobile